Time;durP1;ratioP1;P1;durP2;ratioP2;P2;SDS_P1;SDS_P2;PMS_P1;PMS_P2;Temp;Humidity;BMP_temperature;BMP_pressure;BME280_temperature;BME280_humidity;BME280_pressure;Samples;Min_cycle;Max_cycle;Signal;HPM_P1;HPM_P2
2021/11/09 00:00:17;;;;;;;1.98;1.25;;;20.20;48.70;;;23.83;32.96;102163.84;5133445;28;20506;-46
2021/11/09 00:02:45;;;;;;;1.30;0.88;;;20.20;48.70;;;23.83;33.09;102168.31;5133839;28;20061;-47
2021/11/09 00:05:14;;;;;;;0.98;0.88;;;20.10;48.60;;;23.83;32.74;102169.19;5133803;28;20493;-50
2021/11/09 00:07:47;;;;;;;1.05;0.90;;;20.20;48.70;;;23.83;32.81;102165.66;5133370;28;20054;-49
2021/11/09 00:10:13;;;;;;;0.80;0.80;;;20.20;48.70;;;23.79;32.73;102159.59;5131650;28;20099;-49
2021/11/09 00:12:49;;;;;;;1.58;1.00;;;20.10;48.70;;;23.81;33.13;102167.50;5133364;28;20043;-49
2021/11/09 00:15:18;;;;;;;0.82;0.82;;;20.10;48.70;;;23.81;32.97;102160.34;5133469;28;20404;-49
2021/11/09 00:17:48;;;;;;;0.75;0.75;;;20.20;48.70;;;23.80;32.94;102155.94;5133586;28;20043;-49
2021/11/09 00:20:22;;;;;;;1.10;0.90;;;20.10;48.70;;;23.77;32.93;102153.47;5131890;28;20459;-46
2021/11/09 00:22:49;;;;;;;1.80;1.20;;;20.10;48.70;;;23.81;32.76;102154.16;5133870;28;20051;-48
2021/11/09 00:25:16;;;;;;;1.40;0.75;;;20.10;48.80;;;23.75;33.04;102151.81;5133241;28;20047;-48
2021/11/09 00:27:43;;;;;;;1.17;1.08;;;20.10;48.80;;;23.78;32.89;102157.84;5133337;28;20050;-44
2021/11/09 00:30:11;;;;;;;1.38;0.85;;;20.10;48.80;;;23.76;33.07;102146.38;5133418;28;20075;-49
2021/11/09 00:32:43;;;;;;;0.80;0.80;;;20.10;48.80;;;23.76;32.99;102143.72;5133382;28;20130;-48
2021/11/09 00:35:12;;;;;;;1.80;1.05;;;20.10;48.80;;;23.80;32.76;102155.94;5132293;28;20395;-46
2021/11/09 00:37:40;;;;;;;1.13;0.90;;;20.10;48.70;;;23.78;32.89;102154.31;5131617;28;20058;-48
2021/11/09 00:40:07;;;;;;;1.08;0.70;;;20.10;48.70;;;23.80;32.83;102163.09;5133089;28;20051;-47
2021/11/09 00:42:33;;;;;;;0.68;0.68;;;20.10;48.70;;;23.77;33.02;102150.78;5133284;28;20439;-46
2021/11/09 00:44:58;;;;;;;2.00;0.80;;;20.10;48.70;;;23.79;32.82;102158.69;5132858;28;20043;-45
2021/11/09 00:47:25;;;;;;;1.73;0.75;;;20.10;48.70;;;23.80;32.99;102157.75;5133151;28;20490;-50
2021/11/09 00:49:51;;;;;;;1.10;0.80;;;20.10;48.80;;;23.79;33.11;102153.34;5132470;28;20493;-47
2021/11/09 00:52:17;;;;;;;1.17;0.90;;;20.20;48.80;;;23.76;32.97;102154.41;5132860;28;20047;-47
2021/11/09 00:54:43;;;;;;;1.27;0.80;;;20.10;48.70;;;23.79;33.02;102156.03;5114241;28;20880;-51
2021/11/09 00:57:09;;;;;;;0.70;0.70;;;20.10;48.70;;;23.78;33.01;102149.84;5136549;28;20103;-49
2021/11/09 00:59:34;;;;;;;0.77;0.70;;;20.10;48.70;;;23.79;32.76;102143.56;5136305;28;20478;-50
2021/11/09 01:02:00;;;;;;;0.93;0.80;;;20.10;48.70;;;23.77;33.07;102136.56;5136553;28;20160;-46
2021/11/09 01:04:27;;;;;;;0.93;0.77;;;20.10;48.70;;;23.79;32.84;102140.00;5118046;28;20402;-49
2021/11/09 01:06:54;;;;;;;1.35;0.73;;;20.10;48.80;;;23.73;32.93;102127.84;5136500;28;20047;-48
2021/11/09 01:09:21;;;;;;;1.00;0.70;;;20.10;48.80;;;23.77;32.80;102141.91;5136016;28;20505;-48
2021/11/09 01:11:49;;;;;;;0.90;0.70;;;20.10;48.80;;;23.79;32.83;102140.00;5136088;28;20039;-47
2021/11/09 01:14:15;;;;;;;1.30;0.90;;;20.10;48.70;;;23.78;33.12;102136.47;5135896;28;20073;-51
2021/11/09 01:16:42;;;;;;;1.30;0.60;;;20.10;48.70;;;23.78;32.79;102127.63;5136380;28;20035;-46
2021/11/09 01:19:09;;;;;;;2.13;1.00;;;20.10;48.80;;;23.75;32.98;102125.09;5136134;28;20066;-48
2021/11/09 01:21:36;;;;;;;1.67;0.95;;;20.10;48.70;;;23.76;32.85;102132.19;5135848;28;20043;-47
2021/11/09 01:24:03;;;;;;;1.83;1.10;;;20.10;48.70;;;23.74;32.90;102129.59;5136166;28;20100;-45
2021/11/09 01:26:30;;;;;;;1.00;0.90;;;20.10;48.70;;;23.74;32.96;102126.91;5136134;28;20039;-49
2021/11/09 01:28:59;;;;;;;1.67;0.90;;;20.10;48.70;;;23.77;33.05;102137.44;5135540;28;20051;-49
2021/11/09 01:31:26;;;;;;;2.35;1.10;;;20.10;48.70;;;23.78;32.89;102143.63;5135607;28;20391;-48
2021/11/09 01:33:53;;;;;;;1.45;1.00;;;20.10;48.70;;;23.75;32.93;102131.28;5136032;28;20047;-46
2021/11/09 01:36:19;;;;;;;1.00;0.70;;;20.10;49.20;;;23.78;33.03;102139.16;5135736;28;20111;-50
2021/11/09 01:38:46;;;;;;;1.25;0.90;;;20.10;48.70;;;23.77;33.06;102145.47;5135595;28;20508;-49
2021/11/09 01:41:13;;;;;;;0.75;0.75;;;20.10;48.70;;;23.78;33.01;102157.00;5135903;28;20496;-47
2021/11/09 01:43:40;;;;;;;0.77;0.77;;;20.10;48.70;;;23.74;32.88;102153.63;5135636;28;20051;-46
2021/11/09 01:46:07;;;;;;;1.33;1.00;;;20.10;48.80;;;23.77;33.08;102153.47;5135575;28;20049;-48
2021/11/09 01:48:34;;;;;;;2.47;0.80;;;20.10;48.70;;;23.75;33.02;102143.81;5135416;28;20043;-50
2021/11/09 01:51:05;;;;;;;0.82;0.68;;;20.10;48.70;;;23.74;32.79;102144.72;5135432;28;20039;-44
2021/11/09 01:53:32;;;;;;;1.13;0.80;;;20.10;48.80;;;23.77;32.78;102141.91;5135592;28;20051;-48
2021/11/09 01:56:02;;;;;;;1.13;1.02;;;20.10;48.70;;;23.76;32.93;102146.38;5135491;28;20107;-45
2021/11/09 01:58:30;;;;;;;0.60;0.60;;;20.10;48.70;;;23.74;32.80;102142.94;5135283;28;20048;-46
2021/11/09 02:01:01;;;;;;;0.60;0.60;;;20.10;48.70;;;23.74;32.86;102148.28;5135505;28;20473;-50
2021/11/09 02:03:29;;;;;;;1.20;0.88;;;20.10;48.80;;;23.75;32.84;102149.13;5135383;28;20043;-46
2021/11/09 02:05:55;;;;;;;0.93;0.77;;;20.10;48.80;;;23.74;33.05;102148.28;5135286;27;20051;-46
2021/11/09 02:08:24;;;;;;;1.05;0.95;;;20.10;48.80;;;23.75;33.12;102150.00;5135106;28;20055;-46
2021/11/09 02:10:52;;;;;;;2.22;0.93;;;20.10;48.80;;;23.73;32.97;102151.03;5135084;28;20047;-49
2021/11/09 02:13:20;;;;;;;1.55;0.90;;;20.10;48.80;;;23.75;32.86;102149.13;5135408;28;20084;-49
2021/11/09 02:15:46;;;;;;;1.13;0.70;;;20.10;48.80;;;23.74;32.76;102145.63;5135186;28;20035;-48
2021/11/09 02:18:14;;;;;;;0.93;0.80;;;20.10;48.70;;;23.75;33.03;102151.81;5134710;28;20051;-47
2021/11/09 02:21:00;;;;;;;0.77;0.77;;;20.10;48.80;;;23.73;33.24;102151.88;5134849;28;20043;-47
2021/11/09 02:23:28;;;;;;;0.77;0.70;;;20.10;48.80;;;23.74;32.86;102164.31;5134999;28;20512;-51
2021/11/09 02:25:54;;;;;;;1.30;0.80;;;20.10;48.80;;;23.68;33.00;102157.47;5134951;28;20039;-49
2021/11/09 02:28:21;;;;;;;0.82;0.60;;;20.10;48.80;;;23.71;33.21;102161.78;5134568;28;20099;-49
2021/11/09 02:30:48;;;;;;;1.42;0.80;;;20.10;48.80;;;23.74;32.88;102164.31;5134711;28;20422;-51
2021/11/09 02:33:14;;;;;;;1.20;0.88;;;20.10;48.80;;;23.73;33.05;102151.88;5134806;28;20046;-49
2021/11/09 02:35:41;;;;;;;0.90;0.80;;;20.10;48.80;;;23.73;32.78;102156.38;5134792;28;20142;-50
2021/11/09 02:38:07;;;;;;;0.98;0.75;;;20.10;48.80;;;23.71;33.00;102156.47;5134085;28;20050;-49
2021/11/09 02:40:34;;;;;;;0.82;0.80;;;20.10;48.80;;;23.73;32.92;102162.56;5134750;28;20469;-47
2021/11/09 02:43:06;;;;;;;0.80;0.80;;;20.10;48.80;;;23.68;33.08;102149.47;5134889;28;20047;-48
2021/11/09 02:46:07;;;;;;;1.10;0.77;;;20.10;48.80;;;23.73;33.06;102169.72;5134898;28;20082;-47
2021/11/09 02:48:37;;;;;;;0.90;0.77;;;20.10;48.80;;;23.73;32.93;102169.72;5134022;28;20057;-45
2021/11/09 02:51:12;;;;;;;1.17;0.80;;;20.10;48.80;;;23.74;33.12;102172.31;5134937;28;20043;-50
2021/11/09 02:56:12;;;;;;;0.80;0.80;;;20.10;48.80;;;23.73;33.23;102180.41;5134389;28;20043;-47
2021/11/09 02:58:46;;;;;;;0.95;0.73;;;20.00;48.70;;;23.71;32.95;102179.63;5134201;28;20486;-48
2021/11/09 03:04:01;;;;;;;0.88;0.70;;;20.00;48.80;;;23.71;32.86;102193.00;5134406;28;20398;-50
2021/11/09 03:06:32;;;;;;;1.02;0.80;;;20.00;48.80;;;23.68;32.89;102186.84;5134274;28;20050;-49
2021/11/09 03:09:08;;;;;;;0.93;0.70;;;20.00;48.80;;;23.68;33.15;102192.19;5133849;28;20051;-49
2021/11/09 03:11:36;;;;;;;0.80;0.73;;;20.00;48.80;;;23.69;32.87;102182.38;5134610;28;20047;-50
2021/11/09 03:14:02;;;;;;;0.82;0.70;;;20.00;48.80;;;23.68;33.05;102188.66;5134065;28;20054;-51
2021/11/09 03:16:32;;;;;;;1.40;0.90;;;20.00;48.80;;;23.71;32.92;102201.00;5134166;28;20130;-50
2021/11/09 03:19:07;;;;;;;0.60;0.60;;;20.00;48.80;;;23.70;32.87;102194.78;5133611;27;20058;-52
2021/11/09 03:44:16;;;;;;;2.05;0.88;;;20.00;48.80;;;23.73;32.94;102217.81;5134112;28;20104;-48
2021/11/09 03:46:46;;;;;;;0.70;0.70;;;20.10;48.80;;;23.74;33.22;102214.16;5134047;28;20050;-48
2021/11/09 03:49:13;;;;;;;1.42;0.70;;;20.10;48.70;;;23.75;33.04;102219.44;5133613;28;20043;-48
2021/11/09 03:51:39;;;;;;;1.15;0.90;;;20.10;48.60;;;23.74;32.98;102209.72;5133822;28;20089;-52
2021/11/09 03:54:11;;;;;;;0.80;0.50;;;20.20;48.60;;;23.75;32.88;102205.22;5133882;28;20497;-46
2021/11/09 03:56:40;;;;;;;0.85;0.80;;;20.20;49.20;;;23.79;32.97;102212.13;5133595;28;20047;-49
2021/11/09 03:59:12;;;;;;;0.90;0.70;;;20.20;48.50;;;23.81;33.25;102215.59;5133404;28;20375;-49
2021/11/09 04:01:49;;;;;;;0.60;0.60;;;20.20;48.50;;;23.84;32.88;102216.31;5133907;28;20055;-46
2021/11/09 04:04:35;;;;;;;0.80;0.80;;;20.20;48.40;;;23.83;33.15;102205.72;5133911;28;20043;-50
2021/11/09 04:07:11;;;;;;;1.45;0.85;;;20.30;48.40;;;23.85;32.98;102210.00;5133839;28;20437;-47
2021/11/09 04:10:06;;;;;;;0.90;0.70;;;20.30;48.30;;;23.88;33.09;102203.66;5133305;28;20432;-47
2021/11/09 04:15:31;;;;;;;1.25;0.82;;;20.40;48.20;;;23.91;32.96;102211.50;5133666;28;20179;-49
2021/11/09 04:18:13;;;;;;;0.73;0.73;;;20.40;48.10;;;23.98;32.71;102220.06;5133283;28;20043;-47
2021/11/09 04:23:38;;;;;;;0.90;0.80;;;20.50;48.00;;;23.97;32.70;102221.88;5133242;28;20047;-49
2021/11/09 04:26:15;;;;;;;1.30;0.82;;;20.50;47.90;;;24.07;32.73;102218.69;5133020;28;20104;-51
2021/11/09 04:28:57;;;;;;;0.60;0.60;;;20.50;47.80;;;24.07;32.91;102210.69;5132956;27;20501;-47
2021/11/09 04:31:46;;;;;;;0.80;0.80;;;20.50;47.80;;;24.08;32.79;102212.44;5135990;28;20067;-45
2021/11/09 04:34:41;;;;;;;0.80;0.70;;;20.60;47.80;;;24.12;32.81;102217.50;5136782;28;20039;-48
2021/11/09 04:46:08;;;;;;;0.90;0.80;;;20.70;47.60;;;24.20;32.64;102220.63;5136618;28;20051;-49
2021/11/09 05:01:09;;;;;;;0.80;0.80;;;20.70;47.60;;;24.24;32.44;102237.38;5118194;28;20054;-49
2021/11/09 05:09:37;;;;;;;0.52;0.52;;;20.70;47.50;;;24.29;32.47;102243.34;5136043;28;20039;-48
2021/11/09 05:12:04;;;;;;;0.93;0.68;;;20.70;47.50;;;24.29;32.50;102242.44;5136134;28;20066;-45
2021/11/09 05:14:31;;;;;;;0.63;0.63;;;20.70;47.50;;;24.28;32.44;102246.94;5136116;28;20047;-50
2021/11/09 05:16:58;;;;;;;0.60;0.60;;;20.70;47.50;;;24.31;32.47;102243.25;5136301;28;20047;-49
2021/11/09 05:19:24;;;;;;;1.13;0.70;;;20.70;47.60;;;24.30;32.40;102233.50;5135969;28;20051;-47
2021/11/09 05:21:49;;;;;;;0.73;0.73;;;20.70;47.60;;;24.32;32.32;102237.78;5136034;28;20043;-47
2021/11/09 05:24:15;;;;;;;0.77;0.60;;;20.70;47.60;;;24.31;32.52;102236.09;5136036;28;20039;-45
2021/11/09 05:26:41;;;;;;;0.60;0.60;;;20.70;47.60;;;24.29;32.31;102229.97;5135975;28;20051;-44
2021/11/09 05:29:08;;;;;;;0.68;0.68;;;20.70;47.60;;;24.31;32.54;102232.56;5135843;28;20059;-46
2021/11/09 05:31:34;;;;;;;0.60;0.60;;;20.70;47.60;;;24.29;32.46;102235.31;5135807;28;20047;-46
2021/11/09 05:34:02;;;;;;;0.70;0.70;;;20.70;47.60;;;24.34;32.58;102245.72;5135812;28;20103;-44
2021/11/09 05:36:33;;;;;;;0.73;0.70;;;20.70;47.60;;;24.33;32.41;102255.56;5135791;28;20054;-49
2021/11/09 05:39:09;;;;;;;0.73;0.60;;;20.70;47.60;;;24.33;32.38;102263.59;5135650;28;20055;-45
2021/11/09 05:41:37;;;;;;;0.60;0.52;;;20.70;47.60;;;24.31;32.31;102261.97;5135708;27;20177;-46
2021/11/09 05:44:06;;;;;;;0.95;0.60;;;20.70;47.60;;;24.32;32.49;102256.50;5135905;28;20051;-48
2021/11/09 05:46:34;;;;;;;0.70;0.70;;;20.70;47.60;;;24.31;32.50;102261.97;5135539;28;20070;-50
2021/11/09 05:48:59;;;;;;;0.73;0.73;;;20.70;47.70;;;24.33;32.26;102274.28;5135518;28;20620;-47
2021/11/09 05:51:25;;;;;;;0.60;0.55;;;20.70;47.70;;;24.33;32.51;102274.28;5135510;28;20134;-48
2021/11/09 05:53:51;;;;;;;0.60;0.55;;;20.70;47.70;;;24.31;32.37;102269.97;5135642;28;20083;-48
2021/11/09 05:56:17;;;;;;;0.65;0.63;;;20.70;47.70;;;24.32;32.47;102279.72;5135846;28;20474;-47
2021/11/09 05:58:43;;;;;;;1.05;0.70;;;20.70;47.70;;;24.31;32.44;102281.53;5135322;28;20455;-51
2021/11/09 06:01:09;;;;;;;1.20;0.90;;;20.70;47.70;;;24.34;32.48;102294.75;5135340;28;20039;-47
2021/11/09 06:03:35;;;;;;;0.77;0.70;;;20.70;47.70;;;24.34;32.29;102293.84;5135186;28;20051;-50
2021/11/09 06:06:01;;;;;;;0.50;0.50;;;20.70;47.70;;;24.32;32.41;102291.25;5135301;28;20035;-49
2021/11/09 06:08:27;;;;;;;0.60;0.60;;;20.70;47.70;;;24.34;32.32;102297.41;5134989;28;20058;-49
2021/11/09 06:10:52;;;;;;;0.65;0.63;;;20.60;47.70;;;24.31;32.43;102297.56;5135632;28;20057;-49
2021/11/09 06:13:18;;;;;;;1.48;0.80;;;20.70;47.70;;;24.30;32.55;102301.19;5135204;28;20402;-48
2021/11/09 06:15:44;;;;;;;0.80;0.80;;;20.70;47.70;;;24.35;32.45;102307.13;5135024;28;20047;-49
2021/11/09 06:18:11;;;;;;;1.10;0.70;;;20.70;47.70;;;24.36;32.28;102311.56;5134986;28;20051;-47
2021/11/09 06:20:37;;;;;;;0.77;0.77;;;20.60;47.70;;;24.33;32.39;102308.19;5134870;28;20053;-49
2021/11/09 06:23:03;;;;;;;1.15;0.73;;;20.60;48.20;;;24.36;32.44;102318.72;5135323;28;20043;-48
2021/11/09 06:25:29;;;;;;;0.80;0.63;;;20.70;47.70;;;24.31;32.36;102312.75;5134908;28;20095;-50
2021/11/09 06:27:55;;;;;;;1.30;0.90;;;20.70;47.70;;;24.34;32.43;102312.56;5135381;28;20050;-46
2021/11/09 06:30:22;;;;;;;0.90;0.80;;;20.70;47.70;;;24.37;32.10;102320.41;5114996;28;20049;-49
2021/11/09 06:32:49;;;;;;;0.77;0.70;;;20.70;47.70;;;24.36;32.31;102319.56;5134865;28;20100;-47
2021/11/09 06:35:16;;;;;;;0.93;0.60;;;20.70;47.70;;;24.34;32.39;102323.25;5134770;28;20051;-47
2021/11/09 06:37:42;;;;;;;0.88;0.63;;;20.70;47.70;;;24.34;32.30;102324.16;5134699;28;20486;-44
2021/11/09 06:40:09;;;;;;;0.80;0.80;;;20.70;47.70;;;24.37;32.28;102325.78;5134968;28;20130;-45
2021/11/09 06:42:36;;;;;;;0.52;0.52;;;20.70;47.70;;;24.34;32.23;102318.78;5134738;28;20047;-48
2021/11/09 06:45:04;;;;;;;1.45;0.68;;;20.70;47.70;;;24.35;32.48;102328.53;5134884;28;20429;-45
2021/11/09 06:47:30;;;;;;;0.77;0.60;;;20.70;47.70;;;24.39;32.49;102340.78;5134487;28;20502;-46
2021/11/09 06:49:56;;;;;;;1.17;0.82;;;20.70;47.60;;;24.37;32.20;102345.38;5134382;28;20066;-48
2021/11/09 06:52:22;;;;;;;1.10;0.60;;;20.70;47.60;;;24.39;32.46;102337.25;5134161;27;20499;-47
2021/11/09 06:54:48;;;;;;;0.82;0.82;;;20.70;47.60;;;24.38;32.46;102343.56;5133829;28;20055;-47
2021/11/09 06:57:13;;;;;;;0.85;0.70;;;20.70;47.60;;;24.38;32.39;102341.72;5134403;28;20133;-50
2021/11/09 06:59:39;;;;;;;1.17;1.02;;;20.80;47.60;;;24.39;32.21;102330.09;5133920;28;20490;-51
2021/11/09 07:02:06;;;;;;;1.15;0.88;;;20.70;47.60;;;24.37;32.18;102332.00;5134299;28;20071;-49
2021/11/09 07:04:33;;;;;;;0.98;0.60;;;20.70;47.60;;;24.37;32.39;102325.78;5134551;28;20042;-50
2021/11/09 07:07:00;;;;;;;1.02;0.85;;;20.80;47.60;;;24.38;32.29;102327.50;5134709;28;20054;-48
2021/11/09 07:09:25;;;;;;;0.77;0.70;;;20.70;47.50;;;24.37;32.39;102323.97;5134127;28;20051;-48
2021/11/09 07:11:52;;;;;;;1.08;0.90;;;20.80;47.60;;;24.39;32.13;102319.41;5134105;28;20049;-51
2021/11/09 07:14:19;;;;;;;1.17;1.05;;;20.70;47.60;;;24.37;32.21;102318.63;5134084;28;20041;-48
2021/11/09 07:16:45;;;;;;;1.45;0.80;;;20.70;47.60;;;24.40;32.15;102320.25;5133864;28;20039;-49
2021/11/09 07:19:14;;;;;;;1.88;0.90;;;20.70;47.60;;;24.38;32.30;102322.16;5134355;28;20047;-50
2021/11/09 07:21:40;;;;;;;0.90;0.57;;;20.70;47.50;;;24.41;32.27;102336.22;5133967;28;20502;-47
2021/11/09 07:24:06;;;;;;;1.35;0.70;;;20.70;47.50;;;24.41;32.26;102330.03;5133933;28;20132;-46
2021/11/09 07:26:32;;;;;;;0.70;0.65;;;20.80;47.50;;;24.46;32.14;102341.34;5134198;28;20100;-50
2021/11/09 07:28:58;;;;;;;1.00;0.70;;;20.90;47.30;;;24.49;32.30;102345.63;5133786;28;20099;-45
2021/11/09 07:31:27;;;;;;;0.73;0.60;;;20.90;47.30;;;24.45;32.17;102328.03;5133829;28;20478;-49
2021/11/09 07:33:53;;;;;;;0.70;0.70;;;20.90;47.30;;;24.52;32.15;102345.47;5133740;28;20043;-45
2021/11/09 07:36:19;;;;;;;1.58;0.90;;;20.90;47.30;;;24.53;32.28;102345.41;5133717;28;20516;-48
2021/11/09 07:38:45;;;;;;;0.63;0.63;;;20.90;47.30;;;24.55;32.27;102353.38;5133648;28;20055;-45
2021/11/09 07:41:11;;;;;;;0.68;0.68;;;20.80;47.20;;;24.53;32.07;102345.41;5133657;28;20051;-45
2021/11/09 07:43:37;;;;;;;0.85;0.80;;;20.90;47.20;;;24.55;32.18;102348.03;5133716;28;20062;-48
2021/11/09 07:46:05;;;;;;;1.23;0.90;;;20.90;47.10;;;24.57;32.07;102359.50;5134010;28;20130;-47
2021/11/09 07:48:31;;;;;;;0.70;0.70;;;21.00;47.10;;;24.58;32.03;102363.91;5133386;28;20054;-44
2021/11/09 07:50:57;;;;;;;1.00;0.70;;;21.00;47.10;;;24.58;31.92;102367.44;5133478;28;20047;-46
2021/11/09 07:53:24;;;;;;;1.00;0.80;;;21.00;47.10;;;24.63;31.95;102371.69;5133515;28;20172;-50
2021/11/09 07:55:55;;;;;;;0.60;0.60;;;21.00;47.10;;;24.62;31.93;102368.13;5133312;28;20048;-49
2021/11/09 07:58:31;;;;;;;0.60;0.60;;;21.00;47.10;;;24.65;31.91;102367.13;5133479;28;20137;-49
2021/11/09 08:01:07;;;;;;;0.63;0.60;;;21.00;47.10;;;24.64;31.97;102362.69;5133502;28;20412;-47
2021/11/09 08:04:02;;;;;;;0.65;0.60;;;21.00;47.00;;;24.65;31.89;102361.78;5133488;27;20047;-48
2021/11/09 08:06:31;;;;;;;1.05;0.70;;;21.00;47.00;;;24.68;31.97;102362.47;5135636;28;20448;-50
2021/11/09 08:09:07;;;;;;;0.60;0.60;;;21.10;47.00;;;24.69;31.87;102366.88;5136975;28;20549;-50
2021/11/09 08:11:36;;;;;;;0.88;0.63;;;21.00;47.00;;;24.70;32.07;102371.25;5120279;28;20547;-45
2021/11/09 08:14:02;;;;;;;0.85;0.80;;;21.00;46.90;;;24.70;31.92;102373.06;5136918;28;20074;-45
2021/11/09 08:16:28;;;;;;;0.73;0.70;;;21.00;46.90;;;24.66;31.81;102375.06;5136689;28;20065;-46
2021/11/09 08:18:54;;;;;;;1.75;0.73;;;21.00;46.90;;;24.71;31.95;102374.81;5136815;28;20494;-47
2021/11/09 08:21:20;;;;;;;1.33;0.80;;;21.10;47.00;;;24.72;31.87;102387.22;5137119;28;20142;-48
2021/11/09 08:23:49;;;;;;;0.68;0.60;;;21.00;46.90;;;24.72;32.03;102385.41;5136751;28;20050;-45
2021/11/09 08:26:17;;;;;;;0.90;0.60;;;21.10;47.00;;;24.69;31.80;102377.56;5136645;28;20099;-50
2021/11/09 08:28:44;;;;;;;0.50;0.50;;;21.10;47.00;;;24.73;31.90;102383.63;5136458;28;20099;-45
2021/11/09 08:31:14;;;;;;;0.68;0.60;;;21.10;47.00;;;24.72;31.91;102387.22;5136670;28;20039;-50
2021/11/09 08:33:41;;;;;;;1.15;1.00;;;21.00;46.90;;;24.71;31.79;102378.34;5136834;28;20122;-50
2021/11/09 08:36:10;;;;;;;1.35;0.60;;;21.10;47.00;;;24.70;31.82;102383.78;5136553;28;20058;-49
2021/11/09 08:38:37;;;;;;;0.70;0.70;;;21.10;47.00;;;24.68;31.78;102383.00;5136747;28;20099;-48
2021/11/09 08:41:05;;;;;;;1.45;0.90;;;21.10;47.00;;;24.74;31.75;102390.69;5136756;28;20475;-55
2021/11/09 08:43:34;;;;;;;0.82;0.73;;;21.10;46.90;;;24.74;31.75;102396.03;5136518;28;20043;-47
2021/11/09 08:46:20;;;;;;;0.75;0.60;;;21.10;46.90;;;24.71;31.73;102389.03;5136638;28;20047;-48
2021/11/09 08:48:49;;;;;;;0.60;0.60;;;21.10;46.90;;;24.74;31.76;102402.25;5136108;28;20085;-45
2021/11/09 08:51:17;;;;;;;1.08;0.98;;;21.10;46.90;;;24.74;31.90;102394.22;5136245;28;20138;-45
2021/11/09 08:53:56;;;;;;;1.08;0.80;;;21.10;46.90;;;24.72;31.83;102393.44;5136241;28;20449;-47
2021/11/09 09:04:18;;;;;;;2.03;1.00;;;21.10;46.90;;;24.77;31.91;102406.56;5135955;28;20039;-45
2021/11/09 09:06:58;;;;;;;0.60;0.50;;;21.10;46.80;;;24.77;31.90;102406.56;5136088;28;20075;-51
2021/11/09 09:09:25;;;;;;;1.05;0.90;;;21.10;46.90;;;24.74;31.85;102401.38;5135966;28;20054;-48
2021/11/09 09:11:52;;;;;;;0.95;0.60;;;21.10;46.80;;;24.77;31.71;102409.25;5135950;28;20482;-49
2021/11/09 09:14:19;;;;;;;1.35;0.82;;;21.10;46.90;;;24.74;31.72;102404.03;5135968;28;20055;-47
2021/11/09 09:16:46;;;;;;;0.60;0.60;;;21.10;46.90;;;24.75;31.91;102406.66;5135171;27;20047;-47
2021/11/09 09:19:19;;;;;;;0.95;0.90;;;21.10;46.90;;;24.75;31.79;102406.66;5135944;28;20414;-51
2021/11/09 09:21:49;;;;;;;0.98;0.70;;;21.10;46.80;;;24.77;31.85;102406.56;5135945;28;20047;-48
2021/11/09 09:27:06;;;;;;;0.90;0.60;;;21.10;46.80;;;24.77;31.71;102409.25;5136101;28;20051;-46
2021/11/09 09:56:58;;;;;;;0.80;0.70;;;21.20;46.80;;;24.77;31.82;102411.91;5135176;28;20093;-48
2021/11/09 09:59:29;;;;;;;0.70;0.70;;;21.20;46.90;;;24.78;31.78;102419.00;5135083;28;20051;-48
2021/11/09 10:02:19;;;;;;;2.42;0.90;;;21.20;46.90;;;24.80;31.70;102414.44;5135137;28;20122;-51
2021/11/09 10:05:04;;;;;;;0.52;0.52;;;21.20;46.90;;;24.81;31.78;102409.94;5135014;28;20051;-50
2021/11/09 10:07:33;;;;;;;1.30;0.80;;;21.20;46.90;;;24.82;31.77;102414.34;5135094;28;20050;-47
2021/11/09 10:10:17;;;;;;;1.17;0.70;;;21.20;46.80;;;24.81;31.82;102409.94;5134731;28;20138;-50
2021/11/09 10:13:05;;;;;;;1.02;0.70;;;21.20;46.80;;;24.82;31.77;102412.53;5133690;28;20479;-50
2021/11/09 10:15:33;;;;;;;1.30;0.82;;;21.20;46.80;;;24.83;31.60;102400.03;5135447;28;20047;-45
2021/11/09 10:18:07;;;;;;;0.77;0.77;;;21.20;46.80;;;24.84;31.75;102410.66;5135136;28;20047;-47
2021/11/09 10:20:41;;;;;;;0.50;0.50;;;21.20;46.80;;;24.82;31.85;102401.81;5114999;28;20059;-48
2021/11/09 10:23:23;;;;;;;0.93;0.70;;;21.20;46.80;;;24.83;31.71;102397.38;5135158;28;20046;-47
2021/11/09 10:25:53;;;;;;;0.60;0.52;;;21.20;46.80;;;24.85;31.61;102407.00;5134563;28;20071;-49
2021/11/09 10:28:23;;;;;;;0.88;0.80;;;21.20;46.80;;;24.83;31.77;102403.56;5133694;27;20039;-47
2021/11/09 10:31:03;;;;;;;0.93;0.70;;;21.20;46.80;;;24.85;31.73;102395.47;5134718;28;20066;-48
2021/11/09 10:33:46;;;;;;;0.98;0.65;;;21.20;46.70;;;24.84;31.66;102393.72;5134597;28;20043;-49
2021/11/09 10:36:30;;;;;;;0.80;0.70;;;21.20;46.70;;;24.81;31.74;102389.41;5118631;28;20039;-45
2021/11/09 10:39:18;;;;;;;0.80;0.70;;;21.20;46.70;;;24.85;31.63;102393.63;5134632;28;20494;-49
2021/11/09 10:42:09;;;;;;;0.90;0.60;;;21.20;46.70;;;24.85;31.80;102395.47;5134522;28;20074;-45
2021/11/09 10:44:37;;;;;;;2.78;0.70;;;21.20;46.70;;;24.87;31.58;102397.09;5134097;28;20486;-47
2021/11/09 10:47:29;;;;;;;1.00;0.85;;;21.20;46.70;;;24.84;31.73;102386.59;5134524;28;20092;-47
2021/11/09 10:50:08;;;;;;;1.23;0.70;;;21.20;46.70;;;24.86;31.82;102387.34;5128249;28;20122;-49
2021/11/09 10:52:39;;;;;;;1.38;0.73;;;21.20;46.70;;;24.87;31.70;102386.38;5133885;28;20055;-48
2021/11/09 10:55:28;;;;;;;;;;;21.20;46.70;;;25.00;31.54;102383.06;5134829;28;20047;-47
2021/11/09 10:58:15;;;;;;;0.95;0.55;;;21.20;46.70;;;24.92;31.51;102378.97;5134481;28;19915;-49
2021/11/09 11:06:25;;;;;;;0.60;0.60;;;21.20;46.70;;;24.88;31.40;102387.28;5131856;28;20041;-48
2021/11/09 11:09:19;;;;;;;0.60;0.60;;;21.20;46.70;;;24.90;31.69;102386.22;5130869;28;20059;-48
2021/11/09 11:11:52;;;;;;;0.63;0.63;;;21.20;46.70;;;24.87;31.72;102385.53;5132102;28;20289;-49
2021/11/09 11:14:29;;;;;;;0.70;0.70;;;21.20;46.70;;;24.87;31.79;102382.84;5113664;28;20070;-54
2021/11/09 11:17:04;;;;;;;0.70;0.70;;;21.20;46.70;;;24.86;31.80;102378.44;5132238;28;20047;-49
2021/11/09 11:19:45;;;;;;;1.17;0.85;;;21.30;47.30;;;24.86;31.59;102381.13;5132023;28;20126;-52
2021/11/09 11:22:25;;;;;;;0.50;0.50;;;21.30;46.80;;;24.90;31.59;102375.53;5131905;28;20044;-52
2021/11/09 11:24:53;;;;;;;0.77;0.60;;;21.20;46.80;;;24.87;31.68;102364.13;5132048;28;20332;-50
2021/11/09 11:27:21;;;;;;;0.80;0.70;;;21.20;46.70;;;24.90;31.56;102380.03;5131836;28;20405;-54
2021/11/09 11:29:48;;;;;;;1.00;0.90;;;21.20;46.70;;;24.90;31.72;102377.34;5131448;28;20046;-52
2021/11/09 11:32:18;;;;;;;1.05;0.70;;;21.20;46.70;;;24.84;31.77;102367.84;5131732;28;20096;-55
2021/11/09 11:34:45;;;;;;;1.30;0.63;;;21.20;46.70;;;24.95;31.67;102372.59;5131686;28;20059;-51
2021/11/09 11:37:13;;;;;;;1.00;0.65;;;21.20;46.80;;;24.90;31.63;102372.84;5131569;28;20300;-54
2021/11/09 11:39:42;;;;;;;1.42;0.80;;;21.20;46.70;;;24.90;31.62;102366.63;5129653;27;20431;-49
2021/11/09 11:42:14;;;;;;;2.13;0.90;;;21.20;47.30;;;24.89;31.84;102368.47;5112992;28;20050;-51
2021/11/09 11:44:42;;;;;;;0.90;0.70;;;21.20;46.70;;;24.90;31.59;102370.16;5131608;28;20039;-51
2021/11/09 11:47:17;;;;;;;1.10;1.00;;;21.20;46.80;;;24.87;31.66;102362.31;5131501;28;20055;-54
2021/11/09 11:50:05;;;;;;;2.85;1.00;;;21.20;46.80;;;24.89;31.66;102362.22;5110834;28;20063;-53
2021/11/09 11:52:44;;;;;;;1.55;0.70;;;21.20;46.80;;;24.86;31.77;102349.91;5111051;28;20054;-53
2021/11/09 11:55:21;;;;;;;1.10;0.90;;;21.20;46.80;;;24.89;31.71;102362.22;5111050;28;20418;-53
2021/11/09 11:57:54;;;;;;;1.67;0.80;;;21.20;46.80;;;24.90;31.71;102347.91;5110811;28;20051;-54
2021/11/09 12:00:43;;;;;;;0.80;0.80;;;21.20;46.70;;;24.84;31.68;102341.09;5110635;28;20047;-52
2021/11/09 12:03:22;;;;;;;3.95;0.93;;;21.20;46.80;;;24.90;31.61;102361.28;5110780;28;20048;-52
2021/11/09 12:05:53;;;;;;;0.82;0.73;;;21.20;46.80;;;24.90;31.60;102359.47;5110742;28;20073;-52
2021/11/09 12:08:39;;;;;;;1.92;0.82;;;21.30;46.90;;;24.87;31.77;102345.41;5110180;28;20052;-49
2021/11/09 12:11:09;;;;;;;1.20;0.90;;;21.20;46.80;;;24.87;31.63;102342.72;5110376;28;20047;-48